createdAt,value
2023-08-19T00:02:04.086Z,93.80
2023-08-19T00:04:33.182Z,94.00
2023-08-19T00:07:01.220Z,93.90
2023-08-19T00:09:29.684Z,93.80
2023-08-19T00:14:48.876Z,94.30
2023-08-19T00:17:18.380Z,94.60
2023-08-19T00:19:46.732Z,94.80
2023-08-19T00:22:15.228Z,94.80
2023-08-19T00:24:43.413Z,94.70
2023-08-19T00:27:11.688Z,95.00
2023-08-19T00:29:39.901Z,95.20
2023-08-19T00:32:08.383Z,95.50
2023-08-19T00:34:44.409Z,95.40
2023-08-19T00:37:13.205Z,94.90
2023-08-19T00:39:41.310Z,95.20
2023-08-19T00:42:10.026Z,95.50
2023-08-19T00:44:38.432Z,95.80
2023-08-19T00:47:07.086Z,96.40
2023-08-19T00:49:35.892Z,95.70
2023-08-19T00:52:05.912Z,96.00
2023-08-19T00:54:34.352Z,95.80
2023-08-19T00:57:03.346Z,95.90
2023-08-19T00:59:31.966Z,96.20
2023-08-19T01:02:03.109Z,96.50
2023-08-19T01:04:31.509Z,96.90
2023-08-19T01:07:05.798Z,97.10
2023-08-19T01:09:39.963Z,97.70
2023-08-19T01:12:12.146Z,97.60
2023-08-19T01:14:46.391Z,98.00
2023-08-19T01:17:16.726Z,98.00
2023-08-19T01:19:44.989Z,98.00
2023-08-19T01:22:17.447Z,97.70
2023-08-19T01:24:48.671Z,98.00
2023-08-19T01:27:34.994Z,98.50
2023-08-19T01:30:03.947Z,98.40
2023-08-19T01:32:33.306Z,98.90
2023-08-19T01:35:02.337Z,99.40
2023-08-19T01:37:35.962Z,99.90
2023-08-19T01:40:08.016Z,99.90
2023-08-19T01:42:36.712Z,99.90
2023-08-19T01:45:05.753Z,99.90
2023-08-19T01:47:34.728Z,99.90
2023-08-19T01:50:03.722Z,99.50
2023-08-19T01:52:32.462Z,99.20
2023-08-19T01:55:00.859Z,99.20
2023-08-19T01:57:31.127Z,99.10
2023-08-19T01:59:59.948Z,99.10
2023-08-19T02:02:28.605Z,99.10
2023-08-19T02:04:56.785Z,99.20
2023-08-19T02:07:25.253Z,99.30
2023-08-19T02:09:53.448Z,99.30
2023-08-19T02:12:21.985Z,99.40
2023-08-19T02:14:51.869Z,99.40
2023-08-19T02:17:20.493Z,99.30
2023-08-19T02:19:49.055Z,99.50
2023-08-19T02:22:21.799Z,99.20
2023-08-19T02:24:50.212Z,99.60
2023-08-19T02:27:18.815Z,99.10
2023-08-19T02:29:47.162Z,99.50
2023-08-19T02:32:16.705Z,99.20
2023-08-19T02:34:45.391Z,99.60
2023-08-19T02:37:14.921Z,99.70
2023-08-19T02:39:43.556Z,99.90
2023-08-19T02:42:13.005Z,99.90
2023-08-19T02:44:41.501Z,99.90
2023-08-19T02:47:09.555Z,99.90
2023-08-19T02:49:39.151Z,99.90
2023-08-19T02:52:07.794Z,99.90
2023-08-19T02:54:36.584Z,99.90
2023-08-19T02:57:04.950Z,99.90
2023-08-19T02:59:33.454Z,99.90
2023-08-19T03:02:01.737Z,99.90
2023-08-19T03:04:30.183Z,99.90
2023-08-19T03:07:00.359Z,99.90
2023-08-19T03:09:28.558Z,99.90
2023-08-19T03:11:56.882Z,99.90
2023-08-19T03:14:25.091Z,99.90
2023-08-19T03:16:55.774Z,99.90
2023-08-19T03:19:24.282Z,99.90
2023-08-19T03:21:52.845Z,99.90
2023-08-19T03:24:22.361Z,99.90
2023-08-19T03:26:50.693Z,99.90
2023-08-19T03:29:19.271Z,99.90
2023-08-19T03:31:47.802Z,99.90
2023-08-19T03:34:16.274Z,99.90
2023-08-19T03:36:44.401Z,99.90
2023-08-19T03:39:12.600Z,99.90
2023-08-19T03:41:42.750Z,99.90
2023-08-19T03:44:11.319Z,99.90
2023-08-19T03:46:39.670Z,99.90
2023-08-19T03:49:07.934Z,99.90
2023-08-19T03:51:36.719Z,99.90
2023-08-19T03:54:05.040Z,99.90
2023-08-19T03:56:33.381Z,99.90
2023-08-19T03:59:02.915Z,99.90
2023-08-19T04:01:31.706Z,99.90
2023-08-19T04:03:59.993Z,99.90
2023-08-19T04:06:28.654Z,99.90
2023-08-19T04:08:57.559Z,99.90
2023-08-19T04:11:26.178Z,99.90
2023-08-19T04:13:54.300Z,99.90
2023-08-19T04:16:25.080Z,99.90
2023-08-19T04:18:54.093Z,99.90
2023-08-19T04:21:22.732Z,99.90
2023-08-19T04:23:51.078Z,99.90
2023-08-19T04:26:19.796Z,99.90
2023-08-19T04:28:48.314Z,99.90
2023-08-19T04:31:16.612Z,99.90
2023-08-19T04:33:54.548Z,99.90
2023-08-19T04:36:24.065Z,99.90
2023-08-19T04:38:52.783Z,99.90
2023-08-19T04:41:21.455Z,99.90
2023-08-19T04:43:49.860Z,99.90
2023-08-19T04:46:19.531Z,99.90
2023-08-19T04:48:47.993Z,99.90
2023-08-19T04:51:19.557Z,99.90
2023-08-19T04:53:48.255Z,99.90
2023-08-19T04:56:18.380Z,99.90
2023-08-19T04:58:48.238Z,99.90
2023-08-19T05:01:16.745Z,99.90
2023-08-19T05:03:46.434Z,99.90
2023-08-19T05:06:14.786Z,99.90
2023-08-19T05:08:46.391Z,99.90
2023-08-19T05:11:15.263Z,99.90
2023-08-19T05:13:47.730Z,99.90
2023-08-19T05:16:17.711Z,99.90
2023-08-19T05:18:52.733Z,99.90
2023-08-19T05:21:20.879Z,99.90
2023-08-19T05:23:50.367Z,99.90
2023-08-19T05:26:18.930Z,99.90
2023-08-19T05:28:47.396Z,99.90
2023-08-19T05:31:15.742Z,99.90
2023-08-19T05:33:44.355Z,99.90
2023-08-19T05:36:12.642Z,99.90
2023-08-19T05:38:41.128Z,99.90
2023-08-19T05:41:10.721Z,99.90
2023-08-19T05:43:39.088Z,99.90
2023-08-19T05:46:07.690Z,99.90
2023-08-19T05:48:35.860Z,99.90
2023-08-19T05:51:05.101Z,99.90
2023-08-19T05:53:33.373Z,99.90
2023-08-19T05:56:02.598Z,99.90
2023-08-19T05:58:32.051Z,99.90
2023-08-19T06:01:01.109Z,99.90
2023-08-19T06:03:29.375Z,99.90
2023-08-19T06:05:57.945Z,99.90
2023-08-19T06:08:26.109Z,99.90
2023-08-19T06:11:03.450Z,99.90
2023-08-19T06:13:33.279Z,99.90
2023-08-19T06:16:01.590Z,99.90
2023-08-19T06:18:29.948Z,99.90
2023-08-19T06:20:58.528Z,99.90
2023-08-19T06:23:27.092Z,99.90
2023-08-19T06:25:55.384Z,99.90
2023-08-19T06:28:24.352Z,99.90
2023-08-19T06:30:54.145Z,99.90
2023-08-19T06:33:23.156Z,99.90
2023-08-19T06:35:51.854Z,99.90
2023-08-19T06:38:21.338Z,99.90
2023-08-19T06:40:57.244Z,99.90
2023-08-19T06:43:27.577Z,99.90
2023-08-19T06:45:57.853Z,99.90
2023-08-19T06:48:27.129Z,99.90
2023-08-19T06:50:56.758Z,99.90
2023-08-19T06:53:26.111Z,99.90
2023-08-19T06:56:01.527Z,99.90
2023-08-19T06:58:30.980Z,99.90
2023-08-19T07:01:02.188Z,99.90
2023-08-19T07:03:32.666Z,99.90
2023-08-19T07:06:01.763Z,99.90
2023-08-19T07:08:31.990Z,99.90
2023-08-19T07:11:01.873Z,99.90
2023-08-19T07:13:30.300Z,99.90
2023-08-19T07:16:05.229Z,99.90
2023-08-19T07:18:36.654Z,99.90
2023-08-19T07:21:06.280Z,99.90
2023-08-19T07:23:34.563Z,99.90
2023-08-19T07:26:02.909Z,99.50
2023-08-19T07:28:32.100Z,99.80
2023-08-19T07:31:02.608Z,99.90
2023-08-19T07:33:30.882Z,99.90
2023-08-19T07:35:59.535Z,99.70
2023-08-19T07:38:28.040Z,99.90
2023-08-19T07:40:56.324Z,99.80
2023-08-19T07:43:24.653Z,99.10
2023-08-19T07:45:53.044Z,98.80
2023-08-19T07:48:23.274Z,98.90
2023-08-19T07:50:51.582Z,98.10
2023-08-19T07:53:19.925Z,97.50
2023-08-19T07:55:48.883Z,97.90
2023-08-19T07:58:17.087Z,97.70
2023-08-19T08:00:45.193Z,97.50
2023-08-19T08:03:13.620Z,96.90
2023-08-19T08:05:43.203Z,96.90
2023-08-19T08:08:11.724Z,96.60
2023-08-19T08:10:41.843Z,96.00
2023-08-19T08:13:10.153Z,96.40
2023-08-19T08:15:38.470Z,95.70
2023-08-19T08:18:06.886Z,95.60
2023-08-19T08:20:35.570Z,95.70
2023-08-19T08:23:05.712Z,95.10
2023-08-19T08:25:33.881Z,95.00
2023-08-19T08:28:01.958Z,94.80
2023-08-19T08:30:30.408Z,94.40
2023-08-19T08:32:59.291Z,93.70
2023-08-19T08:35:28.594Z,93.40
2023-08-19T08:37:56.652Z,93.60
2023-08-19T08:40:26.509Z,93.60
2023-08-19T08:42:55.684Z,92.50
2023-08-19T08:45:25.759Z,92.60
2023-08-19T08:47:54.388Z,92.40
2023-08-19T08:50:23.534Z,92.00
2023-08-19T08:52:52.219Z,91.10
2023-08-19T08:55:20.444Z,91.10
2023-08-19T08:57:49.942Z,91.20
2023-08-19T09:00:18.147Z,90.20
2023-08-19T09:02:48.490Z,90.20
2023-08-19T09:05:18.003Z,89.50
2023-08-19T09:07:48.388Z,89.30
2023-08-19T09:10:18.139Z,89.50
2023-08-19T09:12:48.937Z,87.30
2023-08-19T09:15:19.556Z,85.70
2023-08-19T09:17:50.574Z,86.20
2023-08-19T09:20:20.167Z,83.90
2023-08-19T09:22:49.045Z,81.30
2023-08-19T09:25:17.516Z,79.90
2023-08-19T09:27:47.844Z,80.70
2023-08-19T09:30:17.458Z,76.60
2023-08-19T09:32:47.243Z,76.50
2023-08-19T09:35:16.229Z,76.60
2023-08-19T09:37:45.008Z,75.60
2023-08-19T09:40:16.302Z,76.00
2023-08-19T09:42:48.631Z,74.80
2023-08-19T09:45:19.265Z,72.20
2023-08-19T09:47:49.719Z,70.50
2023-08-19T09:50:18.425Z,70.90
2023-08-19T09:52:54.224Z,70.80
2023-08-19T09:55:23.747Z,70.60
2023-08-19T09:57:52.130Z,66.90
2023-08-19T10:00:20.462Z,68.00
2023-08-19T10:02:50.106Z,66.10
2023-08-19T10:05:23.284Z,66.60
2023-08-19T10:07:54.778Z,65.40
2023-08-19T10:10:23.620Z,61.70
2023-08-19T10:12:52.625Z,61.00
2023-08-19T10:15:22.433Z,63.70
2023-08-19T10:17:55.655Z,62.50
2023-08-19T10:20:25.487Z,62.50
2023-08-19T10:22:55.771Z,62.50
2023-08-19T10:25:25.179Z,63.20
2023-08-19T10:28:06.930Z,62.30
2023-08-19T10:30:35.313Z,61.50
2023-08-19T10:33:08.703Z,60.40
2023-08-19T10:35:51.830Z,59.90
2023-08-19T10:38:20.369Z,60.80
2023-08-19T10:41:01.734Z,60.50
2023-08-19T10:43:30.321Z,59.60
2023-08-19T10:45:59.298Z,58.70
2023-08-19T10:48:35.264Z,58.60
2023-08-19T10:51:03.835Z,58.50
2023-08-19T10:53:31.989Z,56.60
2023-08-19T10:56:00.142Z,56.90
2023-08-19T10:58:28.964Z,55.80
2023-08-19T11:00:58.209Z,53.90
2023-08-19T11:03:27.137Z,53.50
2023-08-19T11:05:56.814Z,51.70
2023-08-19T11:08:25.073Z,51.70
2023-08-19T11:10:53.639Z,51.40
2023-08-19T11:13:24.742Z,50.20
2023-08-19T11:16:03.631Z,50.80
2023-08-19T11:18:32.313Z,51.40
2023-08-19T11:21:02.071Z,51.10
2023-08-19T11:23:30.319Z,51.20
2023-08-19T11:26:00.070Z,50.30
2023-08-19T11:28:28.477Z,49.70
2023-08-19T11:30:56.910Z,49.90
2023-08-19T11:33:27.658Z,51.00
2023-08-19T11:35:56.221Z,50.10
2023-08-19T11:38:25.877Z,48.70
2023-08-19T11:40:54.524Z,48.50
2023-08-19T11:43:26.220Z,47.90
2023-08-19T11:45:55.106Z,47.80
2023-08-19T11:48:23.355Z,47.40
2023-08-19T11:50:52.625Z,48.40
2023-08-19T11:53:25.878Z,47.60
2023-08-19T11:55:59.370Z,47.10
2023-08-19T11:58:38.702Z,47.70
2023-08-19T12:01:07.590Z,48.70
2023-08-19T12:03:35.788Z,49.20
2023-08-19T12:06:04.623Z,49.50
2023-08-19T12:08:34.872Z,48.70
2023-08-19T12:11:03.095Z,48.30
2023-08-19T12:13:33.876Z,47.70
2023-08-19T12:16:05.046Z,46.60
2023-08-19T12:18:34.755Z,46.40
2023-08-19T12:21:04.141Z,46.60
2023-08-19T12:23:33.937Z,45.20
2023-08-19T12:26:02.475Z,45.90
2023-08-19T12:28:31.087Z,46.20
2023-08-19T12:30:59.657Z,47.30
2023-08-19T12:33:29.121Z,47.90
2023-08-19T12:36:16.028Z,47.80
2023-08-19T12:38:49.405Z,47.00
2023-08-19T12:41:18.002Z,48.00
2023-08-19T12:43:46.137Z,47.80
2023-08-19T12:46:15.158Z,47.00
2023-08-19T12:48:44.062Z,46.60
2023-08-19T12:51:12.158Z,47.90
2023-08-19T12:53:41.298Z,46.60
2023-08-19T12:56:11.828Z,46.50
2023-08-19T12:58:40.237Z,47.20
2023-08-19T13:01:08.783Z,46.30
2023-08-19T13:03:36.979Z,46.00
2023-08-19T13:06:05.942Z,46.30
2023-08-19T13:08:34.042Z,45.90
2023-08-19T13:11:03.219Z,46.00
2023-08-19T13:13:33.196Z,44.80
2023-08-19T13:16:02.016Z,45.20
2023-08-19T13:18:30.222Z,45.60
2023-08-19T13:20:58.642Z,45.10
2023-08-19T13:23:26.931Z,44.90
2023-08-19T13:25:55.617Z,44.50
2023-08-19T13:28:23.731Z,43.50
2023-08-19T13:30:54.054Z,43.70
2023-08-19T13:33:22.402Z,43.80
2023-08-19T13:35:50.755Z,43.90
2023-08-19T13:38:19.261Z,42.90
2023-08-19T13:40:47.872Z,42.90
2023-08-19T13:43:16.374Z,42.00
2023-08-19T13:45:44.508Z,41.70
2023-08-19T13:48:17.219Z,42.00
2023-08-19T13:50:46.712Z,41.60
2023-08-19T13:53:15.346Z,41.30
2023-08-19T13:55:44.793Z,41.10
2023-08-19T13:58:13.561Z,41.50
2023-08-19T14:00:43.544Z,40.90
2023-08-19T14:03:12.182Z,41.30
2023-08-19T14:05:42.286Z,41.90
2023-08-19T14:08:10.553Z,41.20
2023-08-19T14:10:39.194Z,40.90
2023-08-19T14:13:08.306Z,40.80
2023-08-19T14:15:36.523Z,41.20
2023-08-19T14:18:05.388Z,41.30
2023-08-19T14:20:33.960Z,41.50
2023-08-19T14:23:04.544Z,41.50
2023-08-19T14:25:33.088Z,41.20
2023-08-19T14:28:01.294Z,41.00
2023-08-19T14:30:29.961Z,40.90
2023-08-19T14:32:58.210Z,41.30
2023-08-19T14:35:26.633Z,40.90
2023-08-19T14:37:56.255Z,40.80
2023-08-19T14:40:26.002Z,41.70
2023-08-19T14:42:55.783Z,42.30
2023-08-19T14:45:24.212Z,42.50
2023-08-19T14:47:53.078Z,42.20
2023-08-19T14:50:21.690Z,41.20
2023-08-19T14:52:49.870Z,41.50
2023-08-19T14:55:18.363Z,42.30
2023-08-19T14:57:49.953Z,42.20
2023-08-19T15:00:18.828Z,41.70
2023-08-19T15:02:48.230Z,41.90
2023-08-19T15:05:17.246Z,41.90
2023-08-19T15:07:45.590Z,41.60
2023-08-19T15:10:14.683Z,41.40
2023-08-19T15:12:42.994Z,41.50
2023-08-19T15:15:18.350Z,41.80
2023-08-19T15:17:50.195Z,42.70
2023-08-19T15:20:19.368Z,42.10
2023-08-19T15:22:48.082Z,41.90
2023-08-19T15:25:18.139Z,42.40
2023-08-19T15:27:48.912Z,42.60
2023-08-19T15:30:21.351Z,42.00
2023-08-19T15:32:50.002Z,42.10
2023-08-19T15:35:20.258Z,42.50
2023-08-19T15:37:49.538Z,43.00
2023-08-19T15:40:17.696Z,43.50
2023-08-19T15:42:46.408Z,43.60
2023-08-19T15:45:14.693Z,43.00
2023-08-19T15:47:47.267Z,43.80
2023-08-19T15:50:15.932Z,43.50
2023-08-19T15:52:44.070Z,43.90
2023-08-19T15:55:12.559Z,43.80
2023-08-19T15:57:40.828Z,43.40
2023-08-19T16:00:12.984Z,43.80
2023-08-19T16:02:41.238Z,44.40
2023-08-19T16:05:11.582Z,44.30
2023-08-19T16:07:40.478Z,44.20
2023-08-19T16:10:09.571Z,44.50
2023-08-19T16:12:40.272Z,45.00
2023-08-19T16:15:10.013Z,45.40
2023-08-19T16:17:40.536Z,45.30
2023-08-19T16:20:13.784Z,45.50
2023-08-19T16:23:08.761Z,45.70
2023-08-19T16:25:42.635Z,44.80
2023-08-19T16:28:11.144Z,45.40
2023-08-19T16:30:39.824Z,45.60
2023-08-19T16:33:07.980Z,45.70
2023-08-19T16:35:37.832Z,45.90
2023-08-19T16:38:06.557Z,46.00
2023-08-19T16:40:34.885Z,46.10
2023-08-19T16:43:03.812Z,46.40
2023-08-19T16:45:32.119Z,46.60
2023-08-19T16:48:00.570Z,46.80
2023-08-19T16:50:28.915Z,47.10
2023-08-19T16:52:58.616Z,47.30
2023-08-19T16:55:27.205Z,46.80
2023-08-19T16:57:55.332Z,47.00
2023-08-19T17:00:24.184Z,47.20
2023-08-19T17:02:57.146Z,47.70
2023-08-19T17:05:26.645Z,48.00
2023-08-19T17:11:05.227Z,48.70
2023-08-19T17:13:36.979Z,49.30
2023-08-19T17:16:06.633Z,49.70
2023-08-19T17:18:36.048Z,50.10
2023-08-19T17:21:05.243Z,50.50
2023-08-19T17:23:34.075Z,50.90
2023-08-19T17:26:04.388Z,51.30
2023-08-19T17:28:32.532Z,51.50
2023-08-19T17:31:04.225Z,51.90
2023-08-19T17:33:32.415Z,52.20
2023-08-19T17:36:04.074Z,52.70
2023-08-19T17:38:32.515Z,53.10
2023-08-19T17:41:01.902Z,54.60
2023-08-19T17:43:31.668Z,54.10
2023-08-19T17:46:00.584Z,54.60
2023-08-19T17:48:28.975Z,55.00
2023-08-19T17:50:57.088Z,55.70
2023-08-19T17:53:26.657Z,55.60
2023-08-19T17:55:58.353Z,55.90
2023-08-19T17:58:27.931Z,56.10
2023-08-19T18:00:57.622Z,56.40
2023-08-19T18:03:26.250Z,56.80
2023-08-19T18:05:54.435Z,56.90
2023-08-19T18:08:22.894Z,57.00
2023-08-19T18:10:51.993Z,57.20
2023-08-19T18:13:20.388Z,57.80
2023-08-19T18:15:48.918Z,57.80
2023-08-19T18:18:18.602Z,58.30
2023-08-19T18:20:47.359Z,58.50
2023-08-19T18:23:15.648Z,58.90
2023-08-19T18:25:45.770Z,58.50
2023-08-19T18:28:14.241Z,58.90
2023-08-19T18:30:43.170Z,58.90
2023-08-19T18:33:12.097Z,59.80
2023-08-19T18:36:07.014Z,59.30
2023-08-19T18:38:44.301Z,59.50
2023-08-19T18:41:14.170Z,59.80
2023-08-19T18:43:43.331Z,60.10
2023-08-19T18:46:11.716Z,60.60
2023-08-19T18:48:40.499Z,60.90
2023-08-19T18:51:08.740Z,62.20
2023-08-19T18:53:38.458Z,61.20
2023-08-19T18:56:07.138Z,61.50
2023-08-19T18:58:37.358Z,61.60
2023-08-19T19:01:08.455Z,62.30
2023-08-19T19:03:37.740Z,62.90
2023-08-19T19:06:06.198Z,63.60
2023-08-19T19:08:34.409Z,63.70
2023-08-19T19:11:05.213Z,64.30
2023-08-19T19:13:36.591Z,64.50
2023-08-19T19:16:05.770Z,64.80
2023-08-19T19:18:35.472Z,65.30
2023-08-19T19:21:03.915Z,65.30
2023-08-19T19:23:32.480Z,65.40
2023-08-19T19:26:05.408Z,65.60
2023-08-19T19:28:37.198Z,65.80
2023-08-19T19:31:06.653Z,66.20
2023-08-19T19:33:35.559Z,66.50
2023-08-19T19:36:03.682Z,66.40
2023-08-19T19:38:32.194Z,66.50
2023-08-19T19:41:00.431Z,66.90
2023-08-19T19:43:29.994Z,67.00
2023-08-19T19:45:58.379Z,67.30
2023-08-19T19:48:26.622Z,67.40
2023-08-19T19:50:55.203Z,67.70
2023-08-19T19:53:23.495Z,68.40
2023-08-19T19:55:52.537Z,68.90
2023-08-19T19:58:20.650Z,69.00
2023-08-19T20:00:50.396Z,68.90
2023-08-19T20:03:18.743Z,69.30
2023-08-19T20:05:47.259Z,69.60
2023-08-19T20:08:15.459Z,70.00
2023-08-19T20:10:46.979Z,70.50
2023-08-19T20:13:15.108Z,70.60
2023-08-19T20:15:43.602Z,70.00
2023-08-19T20:18:13.210Z,70.40
2023-08-19T20:20:41.362Z,70.70
2023-08-19T20:23:09.527Z,70.90
2023-08-19T20:25:37.851Z,70.80
2023-08-19T20:28:06.561Z,70.80
2023-08-19T20:30:40.183Z,70.60
2023-08-19T20:33:10.142Z,71.00
2023-08-19T20:35:39.617Z,71.30
2023-08-19T20:38:08.024Z,71.30
2023-08-19T20:40:36.390Z,71.30
2023-08-19T20:43:05.418Z,71.50
2023-08-19T20:45:34.014Z,71.40
2023-08-19T20:48:02.860Z,71.60
2023-08-19T20:50:31.265Z,71.60
2023-08-19T20:53:00.875Z,71.90
2023-08-19T20:55:29.246Z,71.70
2023-08-19T20:57:57.689Z,72.10
2023-08-19T21:00:26.333Z,72.10
2023-08-19T21:02:54.769Z,72.40
2023-08-19T21:05:23.244Z,72.90
2023-08-19T21:07:51.425Z,72.70
2023-08-19T21:10:21.280Z,72.90
2023-08-19T21:12:49.554Z,72.90
2023-08-19T21:15:19.030Z,72.80
2023-08-19T21:17:47.628Z,72.90
2023-08-19T21:20:15.755Z,72.90
2023-08-19T21:22:43.847Z,72.90
2023-08-19T21:25:12.352Z,73.20
2023-08-19T21:27:42.124Z,74.20
2023-08-19T21:30:10.764Z,74.10
2023-08-19T21:32:39.226Z,74.30
2023-08-19T21:35:08.237Z,74.80
2023-08-19T21:37:36.655Z,75.20
2023-08-19T21:40:06.120Z,75.60
2023-08-19T21:42:35.219Z,75.80
2023-08-19T21:45:05.630Z,76.20
2023-08-19T21:47:34.080Z,76.90
2023-08-19T21:50:02.552Z,77.80
2023-08-19T21:52:30.744Z,78.40
2023-08-19T21:54:59.149Z,78.70
2023-08-19T21:57:27.647Z,79.40
2023-08-19T21:59:55.922Z,80.00
2023-08-19T22:02:25.583Z,81.00
2023-08-19T22:04:57.027Z,80.90
2023-08-19T22:07:25.252Z,80.80
2023-08-19T22:09:53.392Z,81.30
2023-08-19T22:12:21.685Z,81.60
2023-08-19T22:14:49.796Z,80.90
2023-08-19T22:17:18.138Z,80.60
2023-08-19T22:19:49.245Z,80.80
2023-08-19T22:22:18.606Z,80.70
2023-08-19T22:24:46.926Z,80.00
2023-08-19T22:27:17.309Z,78.70
2023-08-19T22:29:45.969Z,78.90
2023-08-19T22:32:14.228Z,77.80
2023-08-19T22:34:42.899Z,77.50
2023-08-19T22:37:12.834Z,77.90
2023-08-19T22:39:41.576Z,78.30
2023-08-19T22:42:09.760Z,79.40
2023-08-19T22:44:38.402Z,80.60
2023-08-19T22:47:06.837Z,81.50
2023-08-19T22:49:36.180Z,82.10
2023-08-19T22:52:08.458Z,82.40
2023-08-19T22:54:38.805Z,82.30
2023-08-19T22:57:07.445Z,81.60
2023-08-19T22:59:35.585Z,81.10
2023-08-19T23:02:04.759Z,80.30
2023-08-19T23:04:34.162Z,80.30
2023-08-19T23:07:02.706Z,80.80
2023-08-19T23:09:30.816Z,81.20
2023-08-19T23:12:00.468Z,81.60
2023-08-19T23:14:29.000Z,82.20
2023-08-19T23:16:57.217Z,82.50
2023-08-19T23:19:25.737Z,82.50
2023-08-19T23:21:53.970Z,82.30
2023-08-19T23:24:22.178Z,82.30
2023-08-19T23:26:50.854Z,82.20
2023-08-19T23:29:20.499Z,82.30
2023-08-19T23:31:48.909Z,81.80
2023-08-19T23:34:17.803Z,82.00
2023-08-19T23:36:46.106Z,82.30
2023-08-19T23:39:14.695Z,82.90
2023-08-19T23:41:42.893Z,82.90
2023-08-19T23:44:11.467Z,83.00
2023-08-19T23:46:41.113Z,82.90
2023-08-19T23:49:10.190Z,83.20
2023-08-19T23:51:39.493Z,83.00
2023-08-19T23:54:08.904Z,82.70
2023-08-19T23:56:37.620Z,82.20
2023-08-19T23:59:05.186Z,82.10
